CFG3ZX LGRP-EDDL
Flight info
| Callsign | CFG3ZX |
|---|---|
| Flight time | 3h 19m |
| Altitude | 34000 |
| Route | VANES M601 GILOS UM601 ADESO UN133 RIGRO DCT DISOR DCT LONTA UL608 DOLEV DCT YULHU DCT DOBOT DCT LURID DCT BEDOX DCT SIMBA DCT TESDU DCT AMETU T852 TINSA T854 DOMUX DOMUX1A |
| Aircraft | A321/M-SDE3FGHIRWY/LB1 |
Departure
| Time | 2026-05-06 17:14 |
|---|---|
| Airport | Rhodes International Airport "Diagoras" (LGRP) |
Arrival
| Time | 2026-05-06 20:33 |
|---|---|
| Airport | Düsseldorf Airport (EDDL) |
| Time | Latitude | Longitude | Altitude | Speed | Heading |
|---|---|---|---|---|---|
| 2026-05-06 16:16 | 36.40438 | 28.09383 | 28 ft | 0 kts | 160° |
| 2026-05-06 17:06 | 36.40457 | 28.09374 | 28 ft | 4 kts | 160° |
| 2026-05-06 17:06 | 36.40481 | 28.09364 | 28 ft | 4 kts | 151° |
| 2026-05-06 17:06 | 36.40495 | 28.09343 | 28 ft | 4 kts | 89° |
| 2026-05-06 17:06 | 36.40490 | 28.09314 | 28 ft | 2 kts | 70° |
| 2026-05-06 17:07 | 36.40498 | 28.09330 | 28 ft | 4 kts | 54° |
| 2026-05-06 17:07 | 36.40504 | 28.09339 | 28 ft | 0 kts | 47° |
| 2026-05-06 17:09 | 36.40505 | 28.09339 | 28 ft | 0 kts | 47° |
| 2026-05-06 17:09 | 36.40527 | 28.09363 | 28 ft | 9 kts | 35° |
| 2026-05-06 17:09 | 36.40585 | 28.09423 | 28 ft | 11 kts | 53° |
| 2026-05-06 17:10 | 36.40613 | 28.09499 | 28 ft | 9 kts | 70° |
| 2026-05-06 17:10 | 36.40637 | 28.09580 | 28 ft | 13 kts | 70° |
| 2026-05-06 17:10 | 36.40674 | 28.09707 | 28 ft | 16 kts | 70° |
| 2026-05-06 17:10 | 36.40710 | 28.09832 | 28 ft | 14 kts | 70° |
| 2026-05-06 17:11 | 36.40742 | 28.09941 | 28 ft | 12 kts | 69° |
| 2026-05-06 17:11 | 36.40778 | 28.10063 | 28 ft | 18 kts | 70° |
| 2026-05-06 17:11 | 36.40821 | 28.10211 | 28 ft | 17 kts | 70° |
| 2026-05-06 17:11 | 36.40860 | 28.10341 | 28 ft | 15 kts | 69° |
| 2026-05-06 17:12 | 36.40911 | 28.10434 | 28 ft | 12 kts | 15° |
| 2026-05-06 17:12 | 36.40988 | 28.10371 | 27 ft | 17 kts | 300° |
| 2026-05-06 17:12 | 36.41019 | 28.10257 | 27 ft | 6 kts | 251° |
| 2026-05-06 17:12 | 36.41019 | 28.10256 | 27 ft | 0 kts | 250° |
| 2026-05-06 17:13 | 36.40976 | 28.10108 | 27 ft | 50 kts | 250° |
| 2026-05-06 17:13 | 36.40784 | 28.09454 | 31 ft | 108 kts | 250° |
| 2026-05-06 17:13 | 36.40470 | 28.08386 | 30 ft | 152 kts | 250° |
| 2026-05-06 17:14 | 36.40096 | 28.07070 | 378 ft | 162 kts | 249° |
| 2026-05-06 17:14 | 36.39795 | 28.05726 | 922 ft | 163 kts | 263° |
| 2026-05-06 17:14 | 36.39668 | 28.04311 | 1447 ft | 167 kts | 268° |
| 2026-05-06 17:14 | 36.39580 | 28.02847 | 1882 ft | 177 kts | 269° |
| 2026-05-06 17:15 | 36.39485 | 28.01246 | 2014 ft | 196 kts | 268° |
| 2026-05-06 17:15 | 36.39373 | 27.99474 | 2148 ft | 216 kts | 269° |
| 2026-05-06 17:15 | 36.39243 | 27.97529 | 2305 ft | 237 kts | 268° |
| 2026-05-06 17:15 | 36.39094 | 27.95411 | 2646 ft | 254 kts | 267° |
| 2026-05-06 17:16 | 36.38931 | 27.93194 | 3252 ft | 261 kts | 267° |
| 2026-05-06 17:16 | 36.38757 | 27.90929 | 3891 ft | 266 kts | 267° |
| 2026-05-06 17:16 | 36.38575 | 27.88624 | 4553 ft | 270 kts | 267° |
| 2026-05-06 17:16 | 36.38391 | 27.86287 | 5201 ft | 274 kts | 268° |
| 2026-05-06 17:17 | 36.38382 | 27.83918 | 5857 ft | 275 kts | 274° |
| 2026-05-06 17:17 | 36.38412 | 27.81534 | 6548 ft | 278 kts | 274° |
| 2026-05-06 17:17 | 36.38439 | 27.79128 | 7195 ft | 279 kts | 274° |
| 2026-05-06 17:17 | 36.38465 | 27.76714 | 7856 ft | 281 kts | 274° |
| 2026-05-06 17:18 | 36.38490 | 27.74277 | 8503 ft | 283 kts | 274° |
| 2026-05-06 17:18 | 36.38659 | 27.71852 | 9146 ft | 283 kts | 282° |
| 2026-05-06 17:18 | 36.38960 | 27.69470 | 9810 ft | 284 kts | 282° |
| 2026-05-06 17:18 | 36.39272 | 27.67005 | 10320 ft | 291 kts | 282° |
| 2026-05-06 17:19 | 36.39600 | 27.64440 | 10439 ft | 311 kts | 282° |
| 2026-05-06 17:19 | 36.39950 | 27.61714 | 10565 ft | 329 kts | 282° |
| 2026-05-06 17:19 | 36.40316 | 27.58832 | 10736 ft | 345 kts | 281° |
| 2026-05-06 17:19 | 36.40689 | 27.55859 | 11182 ft | 351 kts | 281° |
| 2026-05-06 17:20 | 36.41061 | 27.52854 | 11741 ft | 353 kts | 281° |
| 2026-05-06 17:20 | 36.41432 | 27.49869 | 12322 ft | 355 kts | 281° |
| 2026-05-06 17:20 | 36.41809 | 27.46829 | 12913 ft | 358 kts | 281° |
| 2026-05-06 17:20 | 36.42189 | 27.43762 | 13451 ft | 361 kts | 281° |
| 2026-05-06 17:21 | 36.42571 | 27.40675 | 14003 ft | 363 kts | 281° |
| 2026-05-06 17:21 | 36.42957 | 27.37565 | 14493 ft | 365 kts | 281° |
| 2026-05-06 17:21 | 36.43343 | 27.34438 | 15002 ft | 367 kts | 281° |
| 2026-05-06 17:21 | 36.43729 | 27.31294 | 15475 ft | 369 kts | 281° |
| 2026-05-06 17:22 | 36.44117 | 27.28139 | 15972 ft | 371 kts | 281° |
| 2026-05-06 17:22 | 36.44506 | 27.24965 | 16450 ft | 373 kts | 281° |
| 2026-05-06 17:22 | 36.44898 | 27.21765 | 16934 ft | 375 kts | 281° |
| 2026-05-06 17:22 | 36.45290 | 27.18553 | 17407 ft | 377 kts | 281° |
| 2026-05-06 17:23 | 36.45683 | 27.15323 | 17855 ft | 380 kts | 281° |
| 2026-05-06 17:23 | 36.46073 | 27.12070 | 18305 ft | 382 kts | 281° |
| 2026-05-06 17:23 | 36.46464 | 27.08795 | 18706 ft | 384 kts | 281° |
| 2026-05-06 17:23 | 36.46860 | 27.05514 | 19099 ft | 385 kts | 281° |
| 2026-05-06 17:24 | 36.47261 | 27.02215 | 19486 ft | 387 kts | 281° |
| 2026-05-06 17:24 | 36.47666 | 26.98904 | 19885 ft | 388 kts | 282° |
| 2026-05-06 17:24 | 36.48071 | 26.95581 | 20263 ft | 390 kts | 282° |
| 2026-05-06 17:24 | 36.48478 | 26.92243 | 20657 ft | 391 kts | 282° |
| 2026-05-06 17:25 | 36.48888 | 26.88888 | 21040 ft | 393 kts | 282° |
| 2026-05-06 17:25 | 36.49296 | 26.85522 | 21404 ft | 395 kts | 282° |
| 2026-05-06 17:25 | 36.49700 | 26.82140 | 21764 ft | 397 kts | 282° |
| 2026-05-06 17:25 | 36.50101 | 26.78741 | 22130 ft | 399 kts | 282° |
| 2026-05-06 17:26 | 36.50502 | 26.75318 | 22502 ft | 400 kts | 282° |
| 2026-05-06 17:26 | 36.50903 | 26.71889 | 22869 ft | 402 kts | 282° |
| 2026-05-06 17:26 | 36.51307 | 26.68439 | 23229 ft | 404 kts | 282° |
| 2026-05-06 17:26 | 36.51714 | 26.64977 | 23584 ft | 406 kts | 282° |
| 2026-05-06 17:27 | 36.52123 | 26.61496 | 23883 ft | 408 kts | 282° |
| 2026-05-06 17:27 | 36.52609 | 26.58028 | 24173 ft | 406 kts | 288° |
| 2026-05-06 17:27 | 36.53202 | 26.55834 | 24353 ft | 404 kts | 296° |
| 2026-05-06 17:27 | 36.54556 | 26.52779 | 24597 ft | 403 kts | 307° |
| 2026-05-06 17:28 | 36.57095 | 26.49428 | 24949 ft | 404 kts | 322° |
| 2026-05-06 17:28 | 36.59464 | 26.47545 | 25221 ft | 406 kts | 333° |
| 2026-05-06 17:28 | 36.62019 | 26.46044 | 25488 ft | 407 kts | 334° |
| 2026-05-06 17:28 | 36.64591 | 26.44540 | 25765 ft | 409 kts | 334° |
| 2026-05-06 17:29 | 36.66334 | 26.43521 | 25952 ft | 410 kts | 333° |
| 2026-05-06 17:29 | 36.68917 | 26.42009 | 26223 ft | 411 kts | 333° |
| 2026-05-06 17:29 | 36.71512 | 26.40490 | 26488 ft | 413 kts | 333° |
| 2026-05-06 17:29 | 36.74115 | 26.38967 | 26751 ft | 414 kts | 333° |
| 2026-05-06 17:30 | 36.76734 | 26.37433 | 27038 ft | 415 kts | 333° |
| 2026-05-06 17:30 | 36.79353 | 26.35899 | 27292 ft | 416 kts | 333° |
| 2026-05-06 17:30 | 36.81941 | 26.34377 | 27533 ft | 417 kts | 333° |
| 2026-05-06 17:30 | 36.84604 | 26.32805 | 27788 ft | 419 kts | 333° |
| 2026-05-06 17:31 | 36.87243 | 26.31244 | 28030 ft | 420 kts | 333° |
| 2026-05-06 17:31 | 36.89889 | 26.29677 | 28260 ft | 422 kts | 333° |
| 2026-05-06 17:31 | 36.92509 | 26.28128 | 28504 ft | 423 kts | 333° |
| 2026-05-06 17:31 | 36.95174 | 26.26551 | 28744 ft | 424 kts | 333° |
| 2026-05-06 17:32 | 36.97835 | 26.24971 | 29044 ft | 424 kts | 333° |
| 2026-05-06 17:32 | 37.00495 | 26.23378 | 29359 ft | 423 kts | 332° |
| 2026-05-06 17:32 | 37.03137 | 26.21767 | 29700 ft | 422 kts | 332° |
| 2026-05-06 17:32 | 37.05770 | 26.20150 | 30033 ft | 421 kts | 332° |
| 2026-05-06 17:33 | 37.08398 | 26.18533 | 30323 ft | 420 kts | 332° |
| 2026-05-06 17:33 | 37.11022 | 26.16928 | 30588 ft | 419 kts | 332° |
| 2026-05-06 17:33 | 37.13643 | 26.15334 | 30870 ft | 418 kts | 332° |
| 2026-05-06 17:33 | 37.16258 | 26.13744 | 31146 ft | 418 kts | 332° |
| 2026-05-06 17:34 | 37.18874 | 26.12153 | 31423 ft | 417 kts | 332° |
| 2026-05-06 17:34 | 37.21474 | 26.10563 | 31697 ft | 416 kts | 332° |
| 2026-05-06 17:34 | 37.24072 | 26.08971 | 31971 ft | 415 kts | 332° |
| 2026-05-06 17:34 | 37.26661 | 26.07382 | 32272 ft | 414 kts | 332° |
| 2026-05-06 17:35 | 37.29245 | 26.05792 | 32567 ft | 412 kts | 332° |
| 2026-05-06 17:35 | 37.31815 | 26.04206 | 32846 ft | 411 kts | 332° |
| 2026-05-06 17:35 | 37.34383 | 26.02623 | 33112 ft | 411 kts | 332° |
| 2026-05-06 17:36 | 37.39506 | 25.99475 | 33644 ft | 409 kts | 332° |
| 2026-05-06 17:36 | 37.42058 | 25.97902 | 33907 ft | 408 kts | 332° |
| 2026-05-06 17:36 | 37.44607 | 25.96327 | 34061 ft | 408 kts | 332° |
| 2026-05-06 17:36 | 37.47119 | 25.94777 | 34073 ft | 407 kts | 332° |
| 2026-05-06 17:37 | 37.52202 | 25.91637 | 34093 ft | 407 kts | 332° |
| 2026-05-06 17:37 | 37.57278 | 25.88492 | 34084 ft | 407 kts | 332° |
| 2026-05-06 17:38 | 37.62156 | 25.84920 | 34081 ft | 405 kts | 326° |
| 2026-05-06 17:38 | 37.66910 | 25.81108 | 34082 ft | 405 kts | 326° |
| 2026-05-06 17:39 | 37.71657 | 25.77281 | 34090 ft | 405 kts | 326° |
| 2026-05-06 17:39 | 37.76417 | 25.73454 | 34087 ft | 405 kts | 326° |
| 2026-05-06 17:40 | 37.81178 | 25.69624 | 34087 ft | 406 kts | 326° |
| 2026-05-06 17:40 | 37.85933 | 25.65788 | 34085 ft | 406 kts | 326° |
| 2026-05-06 17:41 | 37.90694 | 25.61940 | 34078 ft | 406 kts | 326° |
| 2026-05-06 17:41 | 37.95455 | 25.58094 | 34081 ft | 406 kts | 326° |
| 2026-05-06 17:42 | 38.00219 | 25.54236 | 34084 ft | 406 kts | 325° |
| 2026-05-06 17:42 | 38.04977 | 25.50367 | 34088 ft | 406 kts | 325° |
| 2026-05-06 17:43 | 38.09738 | 25.46492 | 34091 ft | 407 kts | 326° |
| 2026-05-06 17:43 | 38.14506 | 25.42614 | 34092 ft | 407 kts | 326° |
| 2026-05-06 17:44 | 38.19272 | 25.38730 | 34085 ft | 407 kts | 325° |
| 2026-05-06 17:44 | 38.24036 | 25.34841 | 34085 ft | 407 kts | 325° |
| 2026-05-06 17:45 | 38.28802 | 25.30947 | 34081 ft | 407 kts | 325° |
| 2026-05-06 17:45 | 38.33572 | 25.27037 | 34090 ft | 408 kts | 325° |
| 2026-05-06 17:46 | 38.38342 | 25.23122 | 34082 ft | 408 kts | 325° |
| 2026-05-06 17:46 | 38.43123 | 25.19201 | 34082 ft | 409 kts | 325° |
| 2026-05-06 17:47 | 38.47898 | 25.15264 | 34081 ft | 409 kts | 325° |
| 2026-05-06 17:47 | 38.52673 | 25.11323 | 34076 ft | 409 kts | 325° |
| 2026-05-06 17:48 | 38.57451 | 25.07380 | 34090 ft | 409 kts | 325° |
| 2026-05-06 17:48 | 38.62233 | 25.03423 | 34085 ft | 409 kts | 325° |
| 2026-05-06 17:49 | 38.67001 | 24.99474 | 34073 ft | 409 kts | 325° |
| 2026-05-06 17:49 | 38.71778 | 24.95508 | 34074 ft | 409 kts | 325° |
| 2026-05-06 17:50 | 38.76560 | 24.91536 | 34071 ft | 410 kts | 325° |
| 2026-05-06 17:50 | 38.81341 | 24.87553 | 34081 ft | 410 kts | 325° |
| 2026-05-06 17:51 | 38.86096 | 24.83594 | 34082 ft | 410 kts | 325° |
| 2026-05-06 17:51 | 38.90880 | 24.79601 | 34086 ft | 410 kts | 325° |
| 2026-05-06 17:52 | 38.95661 | 24.75600 | 34082 ft | 410 kts | 325° |
| 2026-05-06 17:52 | 39.00440 | 24.71586 | 34083 ft | 410 kts | 325° |
| 2026-05-06 17:53 | 39.05218 | 24.67574 | 34078 ft | 410 kts | 325° |
| 2026-05-06 17:53 | 39.10002 | 24.63563 | 34085 ft | 410 kts | 325° |
| 2026-05-06 17:54 | 39.14780 | 24.59543 | 34079 ft | 411 kts | 325° |
| 2026-05-06 17:54 | 39.19565 | 24.55508 | 34070 ft | 411 kts | 325° |
| 2026-05-06 17:55 | 39.24348 | 24.51466 | 34069 ft | 411 kts | 325° |
| 2026-05-06 17:55 | 39.29134 | 24.47421 | 34069 ft | 411 kts | 325° |
| 2026-05-06 17:56 | 39.33915 | 24.43359 | 34076 ft | 411 kts | 325° |
| 2026-05-06 17:56 | 39.38700 | 24.39295 | 34071 ft | 412 kts | 325° |
| 2026-05-06 17:57 | 39.43487 | 24.35221 | 34061 ft | 412 kts | 325° |
| 2026-05-06 17:57 | 39.48279 | 24.31133 | 34061 ft | 413 kts | 325° |
| 2026-05-06 17:58 | 39.53046 | 24.27059 | 34062 ft | 413 kts | 325° |
| 2026-05-06 17:58 | 39.57849 | 24.22958 | 34062 ft | 414 kts | 325° |
| 2026-05-06 17:59 | 39.62659 | 24.18852 | 34071 ft | 413 kts | 326° |
| 2026-05-06 17:59 | 39.67458 | 24.14741 | 34072 ft | 413 kts | 325° |
| 2026-05-06 18:00 | 39.72252 | 24.10620 | 34071 ft | 413 kts | 326° |
| 2026-05-06 18:00 | 39.77049 | 24.06494 | 34069 ft | 413 kts | 325° |
| 2026-05-06 18:01 | 39.81842 | 24.02359 | 34065 ft | 413 kts | 325° |
| 2026-05-06 18:01 | 39.86634 | 23.98212 | 34068 ft | 414 kts | 325° |
| 2026-05-06 18:02 | 39.91431 | 23.94059 | 34069 ft | 414 kts | 325° |
| 2026-05-06 18:02 | 39.96222 | 23.89910 | 34070 ft | 414 kts | 325° |
| 2026-05-06 18:03 | 40.01012 | 23.85751 | 34067 ft | 414 kts | 325° |
| 2026-05-06 18:03 | 40.05801 | 23.81598 | 34067 ft | 413 kts | 325° |
| 2026-05-06 18:04 | 40.10558 | 23.77457 | 34077 ft | 413 kts | 325° |
| 2026-05-06 18:04 | 40.15344 | 23.73287 | 34062 ft | 413 kts | 325° |
| 2026-05-06 18:05 | 40.20121 | 23.69111 | 34059 ft | 413 kts | 325° |
| 2026-05-06 18:05 | 40.24899 | 23.64928 | 34060 ft | 413 kts | 325° |
| 2026-05-06 18:06 | 40.29675 | 23.60742 | 34061 ft | 413 kts | 325° |
| 2026-05-06 18:06 | 40.34447 | 23.56546 | 34060 ft | 413 kts | 325° |
| 2026-05-06 18:07 | 40.39216 | 23.52346 | 34060 ft | 413 kts | 325° |
| 2026-05-06 18:07 | 40.43993 | 23.48143 | 34056 ft | 413 kts | 325° |
| 2026-05-06 18:08 | 40.48766 | 23.43938 | 34060 ft | 413 kts | 325° |
| 2026-05-06 18:08 | 40.53533 | 23.39716 | 34053 ft | 413 kts | 324° |
| 2026-05-06 18:09 | 40.58300 | 23.35489 | 34050 ft | 413 kts | 324° |
| 2026-05-06 18:09 | 40.63068 | 23.31258 | 34051 ft | 413 kts | 324° |
| 2026-05-06 18:10 | 40.67836 | 23.27022 | 34050 ft | 413 kts | 324° |
| 2026-05-06 18:10 | 40.72596 | 23.22773 | 34046 ft | 413 kts | 324° |
| 2026-05-06 18:11 | 40.76553 | 23.19237 | 34049 ft | 413 kts | 324° |
| 2026-05-06 18:11 | 40.82118 | 23.14272 | 34050 ft | 413 kts | 324° |
| 2026-05-06 18:12 | 40.86876 | 23.10014 | 34056 ft | 413 kts | 324° |
| 2026-05-06 18:12 | 40.91624 | 23.05752 | 34056 ft | 413 kts | 324° |
| 2026-05-06 18:13 | 40.96374 | 23.01487 | 34054 ft | 412 kts | 324° |
| 2026-05-06 18:13 | 41.01117 | 22.97213 | 34056 ft | 412 kts | 324° |
| 2026-05-06 18:14 | 41.05823 | 22.92963 | 34056 ft | 412 kts | 324° |
| 2026-05-06 18:14 | 41.09792 | 22.89378 | 34061 ft | 412 kts | 323° |
| 2026-05-06 18:15 | 41.14529 | 22.85093 | 34059 ft | 412 kts | 323° |
| 2026-05-06 18:15 | 41.19265 | 22.80802 | 34057 ft | 412 kts | 323° |
| 2026-05-06 18:16 | 41.23976 | 22.76466 | 34048 ft | 411 kts | 319° |
| 2026-05-06 18:16 | 41.27984 | 22.71102 | 34046 ft | 409 kts | 311° |
| 2026-05-06 18:17 | 41.31804 | 22.65498 | 34050 ft | 409 kts | 311° |
| 2026-05-06 18:17 | 41.35607 | 22.59929 | 34060 ft | 409 kts | 311° |
| 2026-05-06 18:18 | 41.39432 | 22.54324 | 34044 ft | 409 kts | 311° |
| 2026-05-06 18:18 | 41.43256 | 22.48707 | 34044 ft | 409 kts | 310° |
| 2026-05-06 18:19 | 41.47072 | 22.43080 | 34038 ft | 409 kts | 310° |
| 2026-05-06 18:19 | 41.50891 | 22.37438 | 34037 ft | 409 kts | 310° |
| 2026-05-06 18:20 | 41.54713 | 22.31794 | 34022 ft | 410 kts | 310° |
| 2026-05-06 18:20 | 41.58525 | 22.26147 | 34022 ft | 410 kts | 310° |
| 2026-05-06 18:21 | 41.62336 | 22.20485 | 34025 ft | 409 kts | 310° |
| 2026-05-06 18:21 | 41.66142 | 22.14813 | 34013 ft | 410 kts | 310° |
| 2026-05-06 18:22 | 41.69955 | 22.09135 | 34006 ft | 410 kts | 310° |
| 2026-05-06 18:22 | 41.73690 | 22.03559 | 33999 ft | 411 kts | 310° |
| 2026-05-06 18:23 | 41.77501 | 21.97857 | 34001 ft | 411 kts | 310° |
| 2026-05-06 18:23 | 41.81315 | 21.92147 | 34003 ft | 411 kts | 310° |
| 2026-05-06 18:24 | 41.85124 | 21.86432 | 34011 ft | 411 kts | 310° |
| 2026-05-06 18:24 | 41.88929 | 21.80707 | 34010 ft | 411 kts | 310° |
| 2026-05-06 18:25 | 41.92729 | 21.74979 | 34025 ft | 411 kts | 310° |
| 2026-05-06 18:25 | 41.96531 | 21.69235 | 34014 ft | 411 kts | 310° |
| 2026-05-06 18:26 | 42.00330 | 21.63483 | 34016 ft | 411 kts | 310° |
| 2026-05-06 18:26 | 42.04125 | 21.57720 | 34011 ft | 411 kts | 310° |
| 2026-05-06 18:27 | 42.07924 | 21.51964 | 34008 ft | 412 kts | 310° |
| 2026-05-06 18:27 | 42.11720 | 21.46192 | 34003 ft | 412 kts | 310° |
| 2026-05-06 18:28 | 42.15480 | 21.40449 | 34014 ft | 412 kts | 310° |
| 2026-05-06 18:28 | 42.19230 | 21.34619 | 34022 ft | 412 kts | 309° |
| 2026-05-06 18:29 | 42.22927 | 21.28720 | 34029 ft | 412 kts | 309° |
| 2026-05-06 18:29 | 42.26621 | 21.22813 | 34033 ft | 412 kts | 309° |
| 2026-05-06 18:30 | 42.30326 | 21.16906 | 34042 ft | 412 kts | 309° |
| 2026-05-06 18:30 | 42.34027 | 21.11002 | 34045 ft | 412 kts | 309° |
| 2026-05-06 18:31 | 42.37732 | 21.05088 | 34041 ft | 412 kts | 309° |
| 2026-05-06 18:31 | 42.41432 | 20.99168 | 34069 ft | 412 kts | 309° |
| 2026-05-06 18:32 | 42.45132 | 20.93236 | 34058 ft | 412 kts | 309° |
| 2026-05-06 18:32 | 42.48827 | 20.87292 | 34066 ft | 413 kts | 308° |
| 2026-05-06 18:33 | 42.52526 | 20.81339 | 34067 ft | 413 kts | 308° |
| 2026-05-06 18:33 | 42.56164 | 20.75469 | 34048 ft | 413 kts | 308° |
| 2026-05-06 18:34 | 42.59918 | 20.69397 | 34045 ft | 414 kts | 308° |
| 2026-05-06 18:34 | 42.63616 | 20.63408 | 34043 ft | 414 kts | 308° |
| 2026-05-06 18:35 | 42.67310 | 20.57415 | 34031 ft | 414 kts | 308° |
| 2026-05-06 18:35 | 42.71000 | 20.51401 | 34030 ft | 414 kts | 308° |
| 2026-05-06 18:36 | 42.74687 | 20.45379 | 34052 ft | 414 kts | 308° |
| 2026-05-06 18:36 | 42.78349 | 20.39394 | 34039 ft | 414 kts | 308° |
| 2026-05-06 18:37 | 42.82032 | 20.33363 | 34048 ft | 414 kts | 308° |
| 2026-05-06 18:37 | 42.86185 | 20.27885 | 34045 ft | 417 kts | 317° |
| 2026-05-06 18:38 | 42.90601 | 20.22743 | 34040 ft | 417 kts | 317° |
| 2026-05-06 18:38 | 42.95007 | 20.17595 | 34043 ft | 417 kts | 316° |
| 2026-05-06 18:39 | 42.99412 | 20.12437 | 34036 ft | 417 kts | 316° |
| 2026-05-06 18:40 | 43.06016 | 20.04659 | 34031 ft | 418 kts | 316° |
| 2026-05-06 18:40 | 43.10424 | 19.99469 | 34032 ft | 418 kts | 316° |
| 2026-05-06 18:41 | 43.14832 | 19.94270 | 34037 ft | 418 kts | 316° |
| 2026-05-06 18:41 | 43.19247 | 19.89067 | 34043 ft | 419 kts | 316° |
| 2026-05-06 18:42 | 43.23651 | 19.83843 | 34040 ft | 419 kts | 316° |
| 2026-05-06 18:42 | 43.28051 | 19.78618 | 34057 ft | 418 kts | 315° |
| 2026-05-06 18:43 | 43.32430 | 19.73386 | 34050 ft | 417 kts | 315° |
| 2026-05-06 18:43 | 43.36806 | 19.68152 | 34044 ft | 416 kts | 315° |
| 2026-05-06 18:44 | 43.41174 | 19.62933 | 34042 ft | 416 kts | 315° |
| 2026-05-06 18:44 | 43.45540 | 19.57719 | 34031 ft | 416 kts | 315° |
| 2026-05-06 18:45 | 43.49901 | 19.52501 | 34057 ft | 415 kts | 314° |
| 2026-05-06 18:45 | 43.54244 | 19.47283 | 34044 ft | 414 kts | 314° |
| 2026-05-06 18:46 | 43.58585 | 19.42081 | 34036 ft | 413 kts | 314° |
| 2026-05-06 18:46 | 43.62917 | 19.36883 | 34030 ft | 412 kts | 314° |
| 2026-05-06 18:47 | 43.67224 | 19.31670 | 34028 ft | 412 kts | 314° |
| 2026-05-06 18:47 | 43.71507 | 19.26471 | 34027 ft | 412 kts | 314° |
| 2026-05-06 18:48 | 43.75814 | 19.21241 | 34014 ft | 412 kts | 314° |
| 2026-05-06 18:48 | 43.80125 | 19.16002 | 33999 ft | 413 kts | 314° |
| 2026-05-06 18:49 | 43.84447 | 19.10741 | 33995 ft | 414 kts | 314° |
| 2026-05-06 18:49 | 43.88782 | 19.05458 | 34008 ft | 415 kts | 313° |
| 2026-05-06 18:50 | 43.93133 | 19.00124 | 34010 ft | 415 kts | 313° |
| 2026-05-06 18:50 | 43.97428 | 18.94847 | 34006 ft | 415 kts | 313° |
| 2026-05-06 18:51 | 44.01764 | 18.89529 | 34007 ft | 416 kts | 313° |
| 2026-05-06 18:51 | 44.06098 | 18.84197 | 33993 ft | 416 kts | 313° |
| 2026-05-06 18:52 | 44.10424 | 18.78865 | 34001 ft | 417 kts | 313° |
| 2026-05-06 18:52 | 44.14765 | 18.73497 | 33985 ft | 418 kts | 313° |
| 2026-05-06 18:53 | 44.19112 | 18.68118 | 33980 ft | 418 kts | 313° |
| 2026-05-06 18:53 | 44.23471 | 18.62721 | 33990 ft | 418 kts | 313° |
| 2026-05-06 18:54 | 44.27813 | 18.57311 | 33990 ft | 419 kts | 313° |
| 2026-05-06 18:54 | 44.32129 | 18.51858 | 33968 ft | 418 kts | 311° |
| 2026-05-06 18:55 | 44.36313 | 18.46247 | 33969 ft | 417 kts | 310° |
| 2026-05-06 18:55 | 44.40457 | 18.40571 | 33968 ft | 417 kts | 310° |
| 2026-05-06 18:56 | 44.44614 | 18.34915 | 33973 ft | 417 kts | 310° |
| 2026-05-06 18:56 | 44.48078 | 18.30230 | 33983 ft | 417 kts | 310° |
| 2026-05-06 18:57 | 44.52929 | 18.23678 | 34001 ft | 416 kts | 309° |
| 2026-05-06 18:57 | 44.57075 | 18.18054 | 33991 ft | 414 kts | 309° |
| 2026-05-06 18:58 | 44.60528 | 18.13350 | 33984 ft | 413 kts | 309° |
| 2026-05-06 18:58 | 44.64642 | 18.07729 | 33971 ft | 412 kts | 309° |
| 2026-05-06 18:59 | 44.68752 | 18.02108 | 33977 ft | 412 kts | 309° |
| 2026-05-06 18:59 | 44.72869 | 17.96466 | 33964 ft | 413 kts | 309° |
| 2026-05-06 19:00 | 44.76982 | 17.90819 | 33982 ft | 413 kts | 309° |
| 2026-05-06 19:00 | 44.81088 | 17.85163 | 33951 ft | 413 kts | 309° |
| 2026-05-06 19:01 | 44.85158 | 17.79527 | 33964 ft | 413 kts | 309° |
| 2026-05-06 19:01 | 44.89250 | 17.73841 | 33962 ft | 413 kts | 309° |
| 2026-05-06 19:02 | 44.93348 | 17.68145 | 33950 ft | 414 kts | 309° |
| 2026-05-06 19:02 | 44.97453 | 17.62427 | 33940 ft | 414 kts | 309° |
| 2026-05-06 19:03 | 45.01556 | 17.56706 | 33940 ft | 415 kts | 310° |
| 2026-05-06 19:03 | 45.05664 | 17.50954 | 33934 ft | 416 kts | 309° |
| 2026-05-06 19:04 | 45.09786 | 17.45169 | 33922 ft | 419 kts | 310° |
| 2026-05-06 19:04 | 45.13931 | 17.39344 | 33915 ft | 421 kts | 311° |
| 2026-05-06 19:05 | 45.18159 | 17.33559 | 33924 ft | 423 kts | 311° |
| 2026-05-06 19:05 | 45.22441 | 17.27810 | 33928 ft | 424 kts | 312° |
| 2026-05-06 19:06 | 45.26725 | 17.22045 | 33946 ft | 425 kts | 312° |
| 2026-05-06 19:06 | 45.31007 | 17.16228 | 33929 ft | 427 kts | 312° |
| 2026-05-06 19:07 | 45.35296 | 17.10370 | 33917 ft | 428 kts | 312° |
| 2026-05-06 19:07 | 45.39590 | 17.04490 | 33927 ft | 429 kts | 312° |
| 2026-05-06 19:08 | 45.43893 | 16.98598 | 33931 ft | 429 kts | 312° |
| 2026-05-06 19:08 | 45.48197 | 16.92689 | 33945 ft | 430 kts | 312° |
| 2026-05-06 19:09 | 45.52499 | 16.86760 | 33932 ft | 430 kts | 312° |
| 2026-05-06 19:09 | 45.56804 | 16.80817 | 33935 ft | 431 kts | 312° |
| 2026-05-06 19:10 | 45.61080 | 16.74907 | 33930 ft | 431 kts | 312° |
| 2026-05-06 19:10 | 45.65390 | 16.68946 | 33938 ft | 431 kts | 312° |
| 2026-05-06 19:11 | 45.69695 | 16.62980 | 33954 ft | 431 kts | 311° |
| 2026-05-06 19:11 | 45.73992 | 16.56997 | 33950 ft | 431 kts | 311° |
| 2026-05-06 19:12 | 45.78286 | 16.51000 | 33953 ft | 431 kts | 311° |
| 2026-05-06 19:12 | 45.82579 | 16.44995 | 33948 ft | 431 kts | 311° |
| 2026-05-06 19:13 | 45.86864 | 16.38995 | 33950 ft | 431 kts | 311° |
| 2026-05-06 19:13 | 45.91145 | 16.32986 | 33949 ft | 430 kts | 311° |
| 2026-05-06 19:14 | 45.95418 | 16.26973 | 33950 ft | 430 kts | 311° |
| 2026-05-06 19:14 | 45.99681 | 16.20950 | 33940 ft | 429 kts | 311° |
| 2026-05-06 19:15 | 46.03947 | 16.14922 | 33946 ft | 430 kts | 311° |
| 2026-05-06 19:15 | 46.08212 | 16.08889 | 33933 ft | 430 kts | 311° |
| 2026-05-06 19:16 | 46.12472 | 16.02836 | 33937 ft | 430 kts | 310° |
| 2026-05-06 19:16 | 46.16715 | 15.96775 | 33926 ft | 430 kts | 310° |
| 2026-05-06 19:17 | 46.20975 | 15.90695 | 33913 ft | 431 kts | 310° |
| 2026-05-06 19:17 | 46.25236 | 15.84600 | 33911 ft | 431 kts | 310° |
| 2026-05-06 19:18 | 46.29527 | 15.78536 | 33919 ft | 432 kts | 311° |
| 2026-05-06 19:18 | 46.33923 | 15.72604 | 33907 ft | 433 kts | 312° |
| 2026-05-06 19:19 | 46.38344 | 15.66678 | 33904 ft | 433 kts | 311° |
| 2026-05-06 19:19 | 46.42734 | 15.60711 | 33896 ft | 433 kts | 311° |
| 2026-05-06 19:20 | 46.47100 | 15.54714 | 33895 ft | 432 kts | 311° |
| 2026-05-06 19:20 | 46.51473 | 15.48704 | 33915 ft | 433 kts | 310° |
| 2026-05-06 19:21 | 46.55845 | 15.42684 | 33911 ft | 433 kts | 310° |
| 2026-05-06 19:21 | 46.60218 | 15.36653 | 33900 ft | 434 kts | 310° |
| 2026-05-06 19:22 | 46.64596 | 15.30610 | 33892 ft | 434 kts | 310° |
| 2026-05-06 19:22 | 46.68947 | 15.24590 | 33886 ft | 434 kts | 310° |
| 2026-05-06 19:23 | 46.73327 | 15.18512 | 33889 ft | 435 kts | 310° |
| 2026-05-06 19:23 | 46.77704 | 15.12418 | 33875 ft | 435 kts | 309° |
| 2026-05-06 19:24 | 46.82081 | 15.06314 | 33895 ft | 436 kts | 310° |
| 2026-05-06 19:24 | 46.86462 | 15.00201 | 33893 ft | 435 kts | 310° |
| 2026-05-06 19:25 | 46.90824 | 14.94079 | 33884 ft | 435 kts | 309° |
| 2026-05-06 19:25 | 46.95181 | 14.87946 | 33904 ft | 434 kts | 309° |
| 2026-05-06 19:26 | 46.99543 | 14.81806 | 33888 ft | 435 kts | 309° |
| 2026-05-06 19:26 | 47.03907 | 14.75658 | 33889 ft | 435 kts | 309° |
| 2026-05-06 19:27 | 47.08270 | 14.69497 | 33906 ft | 435 kts | 309° |
| 2026-05-06 19:27 | 47.12610 | 14.63338 | 33888 ft | 433 kts | 309° |
| 2026-05-06 19:28 | 47.16933 | 14.57194 | 33895 ft | 432 kts | 308° |
| 2026-05-06 19:28 | 47.21253 | 14.51031 | 33868 ft | 434 kts | 308° |
| 2026-05-06 19:29 | 47.25587 | 14.44833 | 33857 ft | 435 kts | 308° |
| 2026-05-06 19:29 | 47.29902 | 14.38666 | 33852 ft | 435 kts | 309° |
| 2026-05-06 19:30 | 47.34247 | 14.32441 | 33852 ft | 436 kts | 308° |
| 2026-05-06 19:30 | 47.38592 | 14.26193 | 33863 ft | 437 kts | 308° |
| 2026-05-06 19:31 | 47.42946 | 14.19902 | 33817 ft | 438 kts | 308° |
| 2026-05-06 19:31 | 47.49503 | 14.10404 | 33829 ft | 442 kts | 308° |
| 2026-05-06 19:32 | 47.53889 | 14.04039 | 33809 ft | 442 kts | 308° |
| 2026-05-06 19:32 | 47.58283 | 13.97659 | 33844 ft | 442 kts | 307° |
| 2026-05-06 19:33 | 47.62668 | 13.91263 | 33855 ft | 443 kts | 308° |
| 2026-05-06 19:33 | 47.67050 | 13.84845 | 33837 ft | 443 kts | 308° |
| 2026-05-06 19:34 | 47.71435 | 13.78421 | 33831 ft | 443 kts | 308° |
| 2026-05-06 19:34 | 47.75821 | 13.71987 | 33816 ft | 443 kts | 308° |
| 2026-05-06 19:35 | 47.80201 | 13.65538 | 33834 ft | 443 kts | 307° |
| 2026-05-06 19:35 | 47.84571 | 13.59073 | 33881 ft | 442 kts | 307° |
| 2026-05-06 19:36 | 47.88932 | 13.52616 | 33866 ft | 441 kts | 307° |
| 2026-05-06 19:36 | 47.93280 | 13.46177 | 33875 ft | 441 kts | 307° |
| 2026-05-06 19:37 | 47.97624 | 13.39730 | 33861 ft | 440 kts | 307° |
| 2026-05-06 19:37 | 48.01226 | 13.34355 | 33871 ft | 440 kts | 307° |
| 2026-05-06 19:38 | 48.06278 | 13.26793 | 33881 ft | 440 kts | 307° |
| 2026-05-06 19:38 | 48.10592 | 13.20314 | 33884 ft | 439 kts | 307° |
| 2026-05-06 19:39 | 48.14890 | 13.13831 | 33878 ft | 439 kts | 307° |
| 2026-05-06 19:39 | 48.19192 | 13.07359 | 33869 ft | 438 kts | 307° |
| 2026-05-06 19:40 | 48.23538 | 13.00937 | 33860 ft | 442 kts | 312° |
| 2026-05-06 19:40 | 48.28228 | 12.95029 | 33905 ft | 443 kts | 313° |
| 2026-05-06 19:41 | 48.32188 | 12.90040 | 33884 ft | 444 kts | 313° |
| 2026-05-06 19:41 | 48.37696 | 12.83095 | 33857 ft | 445 kts | 314° |
| 2026-05-06 19:42 | 48.42433 | 12.77096 | 33849 ft | 445 kts | 313° |
| 2026-05-06 19:42 | 48.46402 | 12.72057 | 33848 ft | 446 kts | 313° |
| 2026-05-06 19:43 | 48.51142 | 12.66030 | 33843 ft | 446 kts | 313° |
| 2026-05-06 19:43 | 48.55852 | 12.60016 | 33847 ft | 446 kts | 313° |
| 2026-05-06 19:44 | 48.60596 | 12.53949 | 33843 ft | 446 kts | 313° |
| 2026-05-06 19:44 | 48.65335 | 12.47869 | 33869 ft | 447 kts | 313° |
| 2026-05-06 19:45 | 48.70070 | 12.41779 | 33846 ft | 447 kts | 313° |
| 2026-05-06 19:45 | 48.74814 | 12.35669 | 33842 ft | 447 kts | 313° |
| 2026-05-06 19:46 | 48.79551 | 12.29551 | 33869 ft | 448 kts | 313° |
| 2026-05-06 19:46 | 48.84324 | 12.23358 | 33841 ft | 449 kts | 313° |
| 2026-05-06 19:47 | 48.89079 | 12.17189 | 33847 ft | 450 kts | 313° |
| 2026-05-06 19:47 | 48.93808 | 12.11035 | 33835 ft | 451 kts | 313° |
| 2026-05-06 19:48 | 48.98573 | 12.04813 | 33825 ft | 451 kts | 313° |
| 2026-05-06 19:48 | 49.03342 | 11.98579 | 33829 ft | 452 kts | 313° |
| 2026-05-06 19:49 | 49.08105 | 11.92322 | 33837 ft | 453 kts | 313° |
| 2026-05-06 19:49 | 49.12877 | 11.86020 | 33832 ft | 454 kts | 313° |
| 2026-05-06 19:50 | 49.17661 | 11.79702 | 33837 ft | 455 kts | 313° |
| 2026-05-06 19:50 | 49.22447 | 11.73384 | 33833 ft | 455 kts | 313° |
| 2026-05-06 19:51 | 49.27236 | 11.67049 | 33832 ft | 455 kts | 313° |
| 2026-05-06 19:51 | 49.32011 | 11.60698 | 33840 ft | 455 kts | 313° |
| 2026-05-06 19:52 | 49.36788 | 11.54328 | 33823 ft | 456 kts | 313° |
| 2026-05-06 19:52 | 49.41571 | 11.47928 | 33824 ft | 456 kts | 313° |
| 2026-05-06 19:53 | 49.46359 | 11.41496 | 33818 ft | 458 kts | 313° |
| 2026-05-06 19:53 | 49.51161 | 11.35044 | 33805 ft | 458 kts | 313° |
| 2026-05-06 19:54 | 49.55962 | 11.28581 | 33809 ft | 459 kts | 313° |
| 2026-05-06 19:54 | 49.60759 | 11.22090 | 33845 ft | 459 kts | 313° |
| 2026-05-06 19:55 | 49.65550 | 11.15578 | 33836 ft | 459 kts | 313° |
| 2026-05-06 19:55 | 49.69655 | 11.10009 | 33845 ft | 458 kts | 313° |
| 2026-05-06 19:56 | 49.74081 | 11.03990 | 33839 ft | 458 kts | 313° |
| 2026-05-06 19:56 | 49.78857 | 10.97469 | 33828 ft | 457 kts | 313° |
| 2026-05-06 19:57 | 49.83622 | 10.90945 | 33840 ft | 457 kts | 313° |
| 2026-05-06 19:57 | 49.88363 | 10.84431 | 33826 ft | 457 kts | 313° |
| 2026-05-06 19:58 | 49.93115 | 10.77893 | 33821 ft | 457 kts | 313° |
| 2026-05-06 19:58 | 49.97897 | 10.71280 | 33821 ft | 457 kts | 313° |
| 2026-05-06 19:59 | 50.02636 | 10.64706 | 33815 ft | 457 kts | 313° |
| 2026-05-06 19:59 | 50.07348 | 10.58170 | 33813 ft | 457 kts | 313° |
| 2026-05-06 20:00 | 50.12086 | 10.51574 | 33811 ft | 457 kts | 313° |
| 2026-05-06 20:00 | 50.16820 | 10.44935 | 33795 ft | 458 kts | 313° |
| 2026-05-06 20:01 | 50.21344 | 10.37983 | 33804 ft | 451 kts | 302° |
| 2026-05-06 20:01 | 50.24954 | 10.30053 | 33803 ft | 448 kts | 299° |
| 2026-05-06 20:02 | 50.28523 | 10.22058 | 33803 ft | 448 kts | 299° |
| 2026-05-06 20:02 | 50.32080 | 10.14064 | 33824 ft | 448 kts | 299° |
| 2026-05-06 20:03 | 50.35643 | 10.06049 | 33816 ft | 448 kts | 299° |
| 2026-05-06 20:03 | 50.39204 | 9.98027 | 33817 ft | 448 kts | 299° |
| 2026-05-06 20:04 | 50.42756 | 9.89995 | 33816 ft | 449 kts | 299° |
| 2026-05-06 20:04 | 50.46311 | 9.81930 | 33823 ft | 449 kts | 299° |
| 2026-05-06 20:05 | 50.49846 | 9.73870 | 33843 ft | 448 kts | 300° |
| 2026-05-06 20:05 | 50.52123 | 9.68677 | 33843 ft | 447 kts | 300° |
| 2026-05-06 20:06 | 50.55648 | 9.60614 | 33837 ft | 447 kts | 300° |
| 2026-05-06 20:06 | 50.59155 | 9.52561 | 33833 ft | 447 kts | 300° |
| 2026-05-06 20:07 | 50.62658 | 9.44485 | 33825 ft | 446 kts | 299° |
| 2026-05-06 20:07 | 50.66163 | 9.36392 | 33828 ft | 446 kts | 299° |
| 2026-05-06 20:08 | 50.69653 | 9.28313 | 33770 ft | 446 kts | 300° |
| 2026-05-06 20:08 | 50.71386 | 9.24277 | 33480 ft | 444 kts | 300° |
| 2026-05-06 20:08 | 50.73114 | 9.20233 | 33196 ft | 444 kts | 300° |
| 2026-05-06 20:09 | 50.74838 | 9.16182 | 32923 ft | 444 kts | 300° |
| 2026-05-06 20:09 | 50.76558 | 9.12123 | 32653 ft | 445 kts | 300° |
| 2026-05-06 20:09 | 50.78283 | 9.08053 | 32381 ft | 446 kts | 300° |
| 2026-05-06 20:09 | 50.80006 | 9.03986 | 32120 ft | 446 kts | 300° |
| 2026-05-06 20:10 | 50.81739 | 8.99904 | 31891 ft | 447 kts | 301° |
| 2026-05-06 20:10 | 50.83468 | 8.95832 | 31826 ft | 446 kts | 301° |
| 2026-05-06 20:10 | 50.86925 | 8.87657 | 31826 ft | 448 kts | 300° |
| 2026-05-06 20:11 | 50.88655 | 8.83549 | 31563 ft | 446 kts | 300° |
| 2026-05-06 20:11 | 50.90374 | 8.79463 | 31299 ft | 444 kts | 300° |
| 2026-05-06 20:11 | 50.92084 | 8.75395 | 31047 ft | 443 kts | 300° |
| 2026-05-06 20:11 | 50.93783 | 8.71343 | 30791 ft | 441 kts | 300° |
| 2026-05-06 20:12 | 50.95477 | 8.67291 | 30549 ft | 439 kts | 300° |
| 2026-05-06 20:12 | 50.97158 | 8.63261 | 30298 ft | 438 kts | 300° |
| 2026-05-06 20:12 | 50.98834 | 8.59238 | 30051 ft | 436 kts | 300° |
| 2026-05-06 20:12 | 51.00485 | 8.55273 | 29787 ft | 435 kts | 300° |
| 2026-05-06 20:13 | 51.02172 | 8.51222 | 29507 ft | 432 kts | 301° |
| 2026-05-06 20:13 | 51.03818 | 8.47258 | 28980 ft | 428 kts | 301° |
| 2026-05-06 20:13 | 51.05426 | 8.43382 | 28464 ft | 423 kts | 301° |
| 2026-05-06 20:13 | 51.07035 | 8.39490 | 27928 ft | 419 kts | 301° |
| 2026-05-06 20:14 | 51.08627 | 8.35630 | 27411 ft | 415 kts | 301° |
| 2026-05-06 20:14 | 51.10203 | 8.31816 | 26907 ft | 411 kts | 301° |
| 2026-05-06 20:14 | 51.11763 | 8.28030 | 26402 ft | 407 kts | 301° |
| 2026-05-06 20:14 | 51.13307 | 8.24273 | 25913 ft | 403 kts | 301° |
| 2026-05-06 20:15 | 51.14836 | 8.20553 | 25411 ft | 399 kts | 301° |
| 2026-05-06 20:15 | 51.16350 | 8.16868 | 24959 ft | 395 kts | 301° |
| 2026-05-06 20:15 | 51.17850 | 8.13223 | 24494 ft | 392 kts | 301° |
| 2026-05-06 20:15 | 51.19335 | 8.09610 | 24044 ft | 388 kts | 302° |
| 2026-05-06 20:16 | 51.20804 | 8.06024 | 23601 ft | 385 kts | 302° |
| 2026-05-06 20:16 | 51.22255 | 8.02463 | 23126 ft | 381 kts | 302° |
| 2026-05-06 20:16 | 51.23685 | 7.98945 | 22715 ft | 375 kts | 302° |
| 2026-05-06 20:16 | 51.25096 | 7.95480 | 22301 ft | 369 kts | 302° |
| 2026-05-06 20:17 | 51.26485 | 7.92068 | 21892 ft | 364 kts | 302° |
| 2026-05-06 20:17 | 51.27854 | 7.88694 | 21485 ft | 360 kts | 302° |
| 2026-05-06 20:17 | 51.29204 | 7.85360 | 21082 ft | 355 kts | 302° |
| 2026-05-06 20:17 | 51.30537 | 7.82064 | 20682 ft | 352 kts | 302° |
| 2026-05-06 20:18 | 51.31859 | 7.78793 | 20277 ft | 348 kts | 302° |
| 2026-05-06 20:18 | 51.33171 | 7.75553 | 19871 ft | 346 kts | 302° |
| 2026-05-06 20:18 | 51.34473 | 7.72334 | 19445 ft | 343 kts | 302° |
| 2026-05-06 20:18 | 51.35760 | 7.69144 | 19031 ft | 341 kts | 302° |
| 2026-05-06 20:19 | 51.37038 | 7.65959 | 18622 ft | 339 kts | 302° |
| 2026-05-06 20:19 | 51.38310 | 7.62787 | 18210 ft | 337 kts | 302° |
| 2026-05-06 20:19 | 51.39522 | 7.59596 | 17762 ft | 334 kts | 295° |
| 2026-05-06 20:19 | 51.40291 | 7.56127 | 17357 ft | 330 kts | 282° |
| 2026-05-06 20:20 | 51.40527 | 7.52506 | 16955 ft | 327 kts | 269° |
| 2026-05-06 20:20 | 51.40241 | 7.48907 | 16554 ft | 325 kts | 256° |
| 2026-05-06 20:20 | 51.39450 | 7.45529 | 16160 ft | 324 kts | 245° |
| 2026-05-06 20:20 | 51.38439 | 7.42304 | 15754 ft | 323 kts | 245° |
| 2026-05-06 20:21 | 51.37433 | 7.39094 | 15366 ft | 322 kts | 245° |
| 2026-05-06 20:21 | 51.36430 | 7.35890 | 14964 ft | 322 kts | 245° |
| 2026-05-06 20:21 | 51.35431 | 7.32693 | 14568 ft | 321 kts | 245° |
| 2026-05-06 20:21 | 51.34432 | 7.29502 | 14157 ft | 321 kts | 245° |
| 2026-05-06 20:22 | 51.33431 | 7.26314 | 13759 ft | 320 kts | 245° |
| 2026-05-06 20:22 | 51.32430 | 7.23136 | 13326 ft | 320 kts | 245° |
| 2026-05-06 20:22 | 51.31428 | 7.19962 | 12913 ft | 319 kts | 245° |
| 2026-05-06 20:22 | 51.30768 | 7.17874 | 12638 ft | 318 kts | 245° |
| 2026-05-06 20:23 | 51.29772 | 7.14722 | 12223 ft | 317 kts | 245° |
| 2026-05-06 20:23 | 51.28781 | 7.11581 | 11808 ft | 316 kts | 245° |
| 2026-05-06 20:23 | 51.28126 | 7.09507 | 11530 ft | 315 kts | 245° |
| 2026-05-06 20:23 | 51.27778 | 7.08404 | 11390 ft | 315 kts | 245° |
| 2026-05-06 20:24 | 51.26874 | 7.05373 | 10970 ft | 314 kts | 246° |
| 2026-05-06 20:24 | 51.25903 | 7.02258 | 10548 ft | 313 kts | 245° |
| 2026-05-06 20:24 | 51.24963 | 6.99339 | 10275 ft | 309 kts | 244° |
| 2026-05-06 20:24 | 51.24003 | 6.96385 | 10093 ft | 301 kts | 244° |
| 2026-05-06 20:25 | 51.23051 | 6.93457 | 9989 ft | 296 kts | 244° |
| 2026-05-06 20:25 | 51.22108 | 6.90541 | 9919 ft | 296 kts | 245° |
| 2026-05-06 20:25 | 51.21167 | 6.87602 | 9500 ft | 300 kts | 245° |
| 2026-05-06 20:25 | 51.20224 | 6.84653 | 9162 ft | 296 kts | 245° |
| 2026-05-06 20:26 | 51.19282 | 6.81711 | 8680 ft | 297 kts | 245° |
| 2026-05-06 20:26 | 51.18346 | 6.78799 | 8350 ft | 294 kts | 245° |
| 2026-05-06 20:26 | 51.17427 | 6.75948 | 7958 ft | 293 kts | 245° |
| 2026-05-06 20:26 | 51.16473 | 6.73148 | 7328 ft | 289 kts | 238° |
| 2026-05-06 20:27 | 51.15276 | 6.70592 | 6614 ft | 286 kts | 234° |
| 2026-05-06 20:27 | 51.14075 | 6.68091 | 6010 ft | 282 kts | 235° |
| 2026-05-06 20:27 | 51.12900 | 6.65630 | 5429 ft | 277 kts | 236° |
| 2026-05-06 20:27 | 51.12072 | 6.62939 | 4873 ft | 269 kts | 260° |
| 2026-05-06 20:28 | 51.11990 | 6.60072 | 4331 ft | 254 kts | 283° |
| 2026-05-06 20:28 | 51.12572 | 6.57495 | 3842 ft | 246 kts | 304° |
| 2026-05-06 20:28 | 51.13714 | 6.55582 | 3656 ft | 233 kts | 328° |
| 2026-05-06 20:28 | 51.15137 | 6.54611 | 3638 ft | 214 kts | 349° |
| 2026-05-06 20:29 | 51.16563 | 6.54516 | 3518 ft | 201 kts | 9° |
| 2026-05-06 20:29 | 51.17846 | 6.55148 | 3370 ft | 186 kts | 26° |
| 2026-05-06 20:29 | 51.18862 | 6.56307 | 3158 ft | 175 kts | 43° |
| 2026-05-06 20:29 | 51.19617 | 6.57783 | 2940 ft | 168 kts | 50° |
| 2026-05-06 20:30 | 51.20304 | 6.59210 | 2720 ft | 161 kts | 50° |
| 2026-05-06 20:30 | 51.21630 | 6.61970 | 2291 ft | 153 kts | 51° |
| 2026-05-06 20:30 | 51.22269 | 6.63302 | 2095 ft | 150 kts | 50° |
| 2026-05-06 20:31 | 51.22888 | 6.64593 | 1900 ft | 144 kts | 50° |
| 2026-05-06 20:31 | 51.23488 | 6.65845 | 1693 ft | 141 kts | 49° |
| 2026-05-06 20:31 | 51.24080 | 6.67080 | 1493 ft | 140 kts | 50° |
| 2026-05-06 20:31 | 51.24671 | 6.68315 | 1310 ft | 140 kts | 49° |
| 2026-05-06 20:32 | 51.25250 | 6.69525 | 1117 ft | 140 kts | 49° |
| 2026-05-06 20:32 | 51.25845 | 6.70776 | 926 ft | 142 kts | 48° |
| 2026-05-06 20:32 | 51.26440 | 6.72044 | 704 ft | 143 kts | 50° |
| 2026-05-06 20:32 | 51.27038 | 6.73273 | 517 ft | 137 kts | 49° |
| 2026-05-06 20:33 | 51.27615 | 6.74484 | 334 ft | 137 kts | 51° |
| 2026-05-06 20:33 | 51.28231 | 6.75768 | 145 ft | 136 kts | 51° |
| 2026-05-06 20:33 | 51.28703 | 6.76753 | 127 ft | 104 kts | 53° |
| 2026-05-06 20:33 | 51.28985 | 6.77350 | 129 ft | 28 kts | 53° |
| 2026-05-06 20:34 | 51.29022 | 6.77515 | 127 ft | 14 kts | 102° |
| 2026-05-06 20:34 | 51.28959 | 6.77619 | 128 ft | 13 kts | 144° |
| 2026-05-06 20:34 | 51.28894 | 6.77620 | 126 ft | 11 kts | 217° |
| 2026-05-06 20:34 | 51.28851 | 6.77537 | 127 ft | 9 kts | 232° |
| 2026-05-06 20:35 | 51.28795 | 6.77421 | 125 ft | 20 kts | 232° |
| 2026-05-06 20:35 | 51.28698 | 6.77215 | 128 ft | 24 kts | 233° |
| 2026-05-06 20:35 | 51.28602 | 6.77012 | 126 ft | 23 kts | 233° |
| 2026-05-06 20:35 | 51.28505 | 6.76809 | 125 ft | 23 kts | 233° |
| 2026-05-06 20:36 | 51.28406 | 6.76600 | 124 ft | 23 kts | 232° |
| 2026-05-06 20:36 | 51.28311 | 6.76400 | 125 ft | 22 kts | 232° |
| 2026-05-06 20:36 | 51.28222 | 6.76212 | 123 ft | 20 kts | 233° |
| 2026-05-06 20:36 | 51.28149 | 6.76060 | 127 ft | 11 kts | 230° |
| 2026-05-06 20:37 | 51.28087 | 6.76037 | 126 ft | 9 kts | 162° |
| 2026-05-06 20:37 | 51.28035 | 6.76068 | 128 ft | 7 kts | 148° |
| 2026-05-06 20:37 | 51.28013 | 6.76120 | 127 ft | 5 kts | 118° |
| 2026-05-06 20:37 | 51.28000 | 6.76157 | 128 ft | 3 kts | 118° |
| 2026-05-06 20:38 | 51.27999 | 6.76161 | 126 ft | 0 kts | 118° |